METAR Data
IDs: Format: Raw Decoded Include TAF

Data at: 0945 UTC 13 Aug 2022

LFLU 130930Z AUTO 36003KT 290V060 CAVOK 29/09 Q1011